sensor_id;sensor_type;location;lat;lon;timestamp;pressure;altitude;pressure_sealevel;temperature;humidity
50103;BME280;35993;52.604;10.078;2022-07-23T00:01:58;101414.63;;;16.04;100.00
50103;BME280;35993;52.604;10.078;2022-07-23T00:04:23;101405.84;;;16.02;100.00
50103;BME280;35993;52.604;10.078;2022-07-23T00:06:49;101413.06;;;15.97;100.00
50103;BME280;35993;52.604;10.078;2022-07-23T00:09:14;101416.16;;;15.88;100.00
50103;BME280;35993;52.604;10.078;2022-07-23T00:11:40;101416.88;;;15.96;100.00
50103;BME280;35993;52.604;10.078;2022-07-23T00:14:06;101419.97;;;15.99;100.00
50103;BME280;35993;52.604;10.078;2022-07-23T00:16:31;101421.72;;;15.82;100.00
50103;BME280;35993;52.604;10.078;2022-07-23T00:18:57;101424.16;;;15.71;100.00
50103;BME280;35993;52.604;10.078;2022-07-23T00:21:22;101420.72;;;15.64;100.00
50103;BME280;35993;52.604;10.078;2022-07-23T00:23:48;101421.53;;;15.65;100.00
50103;BME280;35993;52.604;10.078;2022-07-23T00:26:14;101428.59;;;15.72;100.00
50103;BME280;35993;52.604;10.078;2022-07-23T00:28:39;101428.34;;;15.74;100.00
50103;BME280;35993;52.604;10.078;2022-07-23T00:31:05;101412.69;;;15.81;100.00
50103;BME280;35993;52.604;10.078;2022-07-23T00:33:31;101419.31;;;15.73;100.00
50103;BME280;35993;52.604;10.078;2022-07-23T00:35:56;101420.09;;;15.62;100.00
50103;BME280;35993;52.604;10.078;2022-07-23T00:38:22;101425.03;;;15.42;100.00
50103;BME280;35993;52.604;10.078;2022-07-23T00:40:48;101422.44;;;15.47;100.00
50103;BME280;35993;52.604;10.078;2022-07-23T00:43:14;101417.72;;;15.54;100.00
50103;BME280;35993;52.604;10.078;2022-07-23T00:45:40;101412.31;;;15.47;100.00
50103;BME280;35993;52.604;10.078;2022-07-23T00:48:06;101416.34;;;15.45;100.00
50103;BME280;35993;52.604;10.078;2022-07-23T00:50:32;101415.28;;;15.46;100.00
50103;BME280;35993;52.604;10.078;2022-07-23T00:52:58;101417.59;;;15.49;100.00
50103;BME280;35993;52.604;10.078;2022-07-23T00:55:23;101421.34;;;15.36;100.00
50103;BME280;35993;52.604;10.078;2022-07-23T00:57:50;101412.38;;;15.29;100.00
50103;BME280;35993;52.604;10.078;2022-07-23T01:00:16;101413.16;;;15.17;100.00
50103;BME280;35993;52.604;10.078;2022-07-23T01:02:42;101403.75;;;15.13;100.00
50103;BME280;35993;52.604;10.078;2022-07-23T01:05:08;101410.44;;;15.17;100.00
50103;BME280;35993;52.604;10.078;2022-07-23T01:07:35;101411.09;;;15.13;100.00
50103;BME280;35993;52.604;10.078;2022-07-23T01:10:02;101408.47;;;15.06;100.00
50103;BME280;35993;52.604;10.078;2022-07-23T01:12:28;101408.69;;;15.04;100.00
50103;BME280;35993;52.604;10.078;2022-07-23T01:14:58;101413.66;;;14.96;100.00
50103;BME280;35993;52.604;10.078;2022-07-23T01:17:27;101414.03;;;14.81;100.00
50103;BME280;35993;52.604;10.078;2022-07-23T01:19:52;101414.41;;;14.66;100.00
50103;BME280;35993;52.604;10.078;2022-07-23T01:22:19;101408.34;;;14.82;100.00
50103;BME280;35993;52.604;10.078;2022-07-23T01:24:46;101404.31;;;14.85;100.00
50103;BME280;35993;52.604;10.078;2022-07-23T01:27:12;101404.91;;;14.87;100.00
50103;BME280;35993;52.604;10.078;2022-07-23T01:29:44;101410.31;;;14.75;100.00
50103;BME280;35993;52.604;10.078;2022-07-23T01:32:14;101398.72;;;14.80;100.00
50103;BME280;35993;52.604;10.078;2022-07-23T01:34:40;101398.31;;;14.76;100.00
50103;BME280;35993;52.604;10.078;2022-07-23T01:37:06;101399.75;;;14.79;100.00
50103;BME280;35993;52.604;10.078;2022-07-23T01:39:32;101395.50;;;14.83;100.00
50103;BME280;35993;52.604;10.078;2022-07-23T01:41:57;101387.31;;;14.83;100.00
50103;BME280;35993;52.604;10.078;2022-07-23T01:44:24;101385.91;;;14.92;100.00
50103;BME280;35993;52.604;10.078;2022-07-23T01:46:49;101379.69;;;15.03;100.00
50103;BME280;35993;52.604;10.078;2022-07-23T01:49:16;101378.56;;;14.93;100.00
50103;BME280;35993;52.604;10.078;2022-07-23T01:52:01;101378.34;;;14.57;100.00
50103;BME280;35993;52.604;10.078;2022-07-23T01:54:38;101375.72;;;14.43;100.00
50103;BME280;35993;52.604;10.078;2022-07-23T01:57:06;101370.56;;;14.54;100.00
50103;BME280;35993;52.604;10.078;2022-07-23T01:59:33;101364.94;;;14.49;100.00
50103;BME280;35993;52.604;10.078;2022-07-23T02:02:00;101379.16;;;14.39;100.00
50103;BME280;35993;52.604;10.078;2022-07-23T02:04:27;101379.34;;;14.19;100.00
50103;BME280;35993;52.604;10.078;2022-07-23T02:06:53;101382.97;;;14.13;100.00
50103;BME280;35993;52.604;10.078;2022-07-23T02:09:19;101398.75;;;14.11;100.00
50103;BME280;35993;52.604;10.078;2022-07-23T02:11:46;101388.28;;;14.07;100.00
50103;BME280;35993;52.604;10.078;2022-07-23T02:14:11;101387.53;;;14.19;100.00
50103;BME280;35993;52.604;10.078;2022-07-23T02:16:37;101389.88;;;14.15;100.00
50103;BME280;35993;52.604;10.078;2022-07-23T02:19:04;101388.59;;;14.18;100.00
50103;BME280;35993;52.604;10.078;2022-07-23T02:21:29;101378.88;;;14.22;100.00
50103;BME280;35993;52.604;10.078;2022-07-23T02:23:55;101383.75;;;14.20;100.00
50103;BME280;35993;52.604;10.078;2022-07-23T02:26:21;101370.84;;;14.27;100.00
50103;BME280;35993;52.604;10.078;2022-07-23T02:28:49;101365.72;;;14.37;100.00
50103;BME280;35993;52.604;10.078;2022-07-23T02:31:16;101373.31;;;14.35;100.00
50103;BME280;35993;52.604;10.078;2022-07-23T02:33:41;101370.66;;;14.29;100.00
50103;BME280;35993;52.604;10.078;2022-07-23T02:36:07;101365.72;;;14.37;100.00
50103;BME280;35993;52.604;10.078;2022-07-23T02:38:33;101361.16;;;14.31;100.00
50103;BME280;35993;52.604;10.078;2022-07-23T02:40:58;101357.97;;;14.16;100.00
50103;BME280;35993;52.604;10.078;2022-07-23T02:43:24;101362.72;;;14.20;100.00
50103;BME280;35993;52.604;10.078;2022-07-23T02:45:50;101373.09;;;14.12;100.00
50103;BME280;35993;52.604;10.078;2022-07-23T02:48:16;101368.41;;;14.00;100.00
50103;BME280;35993;52.604;10.078;2022-07-23T02:50:44;101364.72;;;14.13;100.00
50103;BME280;35993;52.604;10.078;2022-07-23T02:53:12;101367.22;;;14.15;100.00
50103;BME280;35993;52.604;10.078;2022-07-23T02:55:40;101357.56;;;14.12;100.00
50103;BME280;35993;52.604;10.078;2022-07-23T02:58:06;101362.19;;;14.12;100.00
50103;BME280;35993;52.604;10.078;2022-07-23T03:00:31;101357.50;;;14.19;100.00
50103;BME280;35993;52.604;10.078;2022-07-23T03:02:57;101347.50;;;14.31;100.00
50103;BME280;35993;52.604;10.078;2022-07-23T03:05:22;101346.00;;;14.35;100.00
50103;BME280;35993;52.604;10.078;2022-07-23T03:07:48;101353.88;;;14.25;100.00
50103;BME280;35993;52.604;10.078;2022-07-23T03:10:14;101363.03;;;14.12;100.00
50103;BME280;35993;52.604;10.078;2022-07-23T03:12:40;101373.28;;;14.17;100.00
50103;BME280;35993;52.604;10.078;2022-07-23T03:15:06;101379.41;;;14.12;100.00
50103;BME280;35993;52.604;10.078;2022-07-23T03:17:32;101374.72;;;14.19;100.00
50103;BME280;35993;52.604;10.078;2022-07-23T03:19:57;101370.41;;;14.30;100.00
50103;BME280;35993;52.604;10.078;2022-07-23T03:22:23;101369.59;;;14.30;100.00
50103;BME280;35993;52.604;10.078;2022-07-23T03:24:49;101366.31;;;14.39;100.00
50103;BME280;35993;52.604;10.078;2022-07-23T03:27:28;101358.81;;;14.53;100.00
50103;BME280;35993;52.604;10.078;2022-07-23T03:29:56;101352.69;;;14.58;100.00
50103;BME280;35993;52.604;10.078;2022-07-23T03:32:23;101352.97;;;14.50;100.00
50103;BME280;35993;52.604;10.078;2022-07-23T03:34:49;101353.75;;;14.57;100.00
50103;BME280;35993;52.604;10.078;2022-07-23T03:37:15;101353.13;;;14.55;100.00
50103;BME280;35993;52.604;10.078;2022-07-23T03:39:41;101358.59;;;14.55;100.00
50103;BME280;35993;52.604;10.078;2022-07-23T03:42:07;101357.22;;;14.46;100.00
50103;BME280;35993;52.604;10.078;2022-07-23T03:44:33;101358.50;;;14.43;100.00
50103;BME280;35993;52.604;10.078;2022-07-23T03:47:02;101349.66;;;14.48;100.00
50103;BME280;35993;52.604;10.078;2022-07-23T03:49:27;101364.13;;;14.48;100.00
50103;BME280;35993;52.604;10.078;2022-07-23T03:51:53;101363.44;;;14.34;100.00
50103;BME280;35993;52.604;10.078;2022-07-23T03:54:19;101360.94;;;14.51;100.00
50103;BME280;35993;52.604;10.078;2022-07-23T03:56:45;101354.53;;;14.64;100.00
50103;BME280;35993;52.604;10.078;2022-07-23T03:59:11;101340.63;;;14.66;100.00
50103;BME280;35993;52.604;10.078;2022-07-23T04:01:37;101338.56;;;14.61;100.00
50103;BME280;35993;52.604;10.078;2022-07-23T04:04:03;101347.66;;;14.55;100.00
50103;BME280;35993;52.604;10.078;2022-07-23T04:06:29;101344.53;;;14.51;100.00
50103;BME280;35993;52.604;10.078;2022-07-23T04:08:56;101355.31;;;14.46;100.00
50103;BME280;35993;52.604;10.078;2022-07-23T04:11:22;101354.72;;;14.44;100.00
50103;BME280;35993;52.604;10.078;2022-07-23T04:13:47;101356.00;;;14.41;100.00
50103;BME280;35993;52.604;10.078;2022-07-23T04:16:13;101358.13;;;14.39;100.00
50103;BME280;35993;52.604;10.078;2022-07-23T04:18:39;101367.38;;;14.38;100.00
50103;BME280;35993;52.604;10.078;2022-07-23T04:21:11;101369.94;;;14.15;100.00
50103;BME280;35993;52.604;10.078;2022-07-23T04:23:37;101386.25;;;13.96;100.00
50103;BME280;35993;52.604;10.078;2022-07-23T04:26:04;101385.94;;;13.86;100.00
50103;BME280;35993;52.604;10.078;2022-07-23T04:28:30;101391.84;;;13.83;100.00
50103;BME280;35993;52.604;10.078;2022-07-23T04:30:57;101397.25;;;13.89;100.00
50103;BME280;35993;52.604;10.078;2022-07-23T04:33:23;101385.47;;;14.14;100.00
50103;BME280;35993;52.604;10.078;2022-07-23T04:35:51;101390.59;;;14.29;100.00
50103;BME280;35993;52.604;10.078;2022-07-23T04:38:20;101382.31;;;14.17;100.00
50103;BME280;35993;52.604;10.078;2022-07-23T04:40:48;101381.28;;;14.37;100.00
50103;BME280;35993;52.604;10.078;2022-07-23T04:43:13;101383.56;;;14.40;100.00
50103;BME280;35993;52.604;10.078;2022-07-23T04:45:44;101376.19;;;14.40;100.00
50103;BME280;35993;52.604;10.078;2022-07-23T04:48:10;101388.31;;;14.45;100.00
50103;BME280;35993;52.604;10.078;2022-07-23T04:50:36;101389.94;;;14.34;100.00
50103;BME280;35993;52.604;10.078;2022-07-23T04:53:04;101394.53;;;14.15;100.00
50103;BME280;35993;52.604;10.078;2022-07-23T04:55:30;101404.81;;;14.13;100.00
50103;BME280;35993;52.604;10.078;2022-07-23T04:57:56;101416.34;;;14.15;100.00
50103;BME280;35993;52.604;10.078;2022-07-23T05:00:22;101423.38;;;14.04;100.00
50103;BME280;35993;52.604;10.078;2022-07-23T05:02:48;101413.56;;;13.96;100.00
50103;BME280;35993;52.604;10.078;2022-07-23T05:05:13;101414.13;;;14.05;100.00
50103;BME280;35993;52.604;10.078;2022-07-23T05:07:41;101392.19;;;14.18;100.00
50103;BME280;35993;52.604;10.078;2022-07-23T05:10:07;101387.78;;;14.36;100.00
50103;BME280;35993;52.604;10.078;2022-07-23T05:12:33;101395.81;;;14.31;100.00
50103;BME280;35993;52.604;10.078;2022-07-23T05:14:58;101390.16;;;14.32;100.00
50103;BME280;35993;52.604;10.078;2022-07-23T05:17:25;101390.09;;;14.39;100.00
50103;BME280;35993;52.604;10.078;2022-07-23T05:19:51;101395.00;;;14.30;100.00
50103;BME280;35993;52.604;10.078;2022-07-23T05:22:17;101386.34;;;14.33;100.00
50103;BME280;35993;52.604;10.078;2022-07-23T05:24:43;101390.47;;;14.42;100.00
50103;BME280;35993;52.604;10.078;2022-07-23T05:27:18;101389.38;;;14.43;100.00
50103;BME280;35993;52.604;10.078;2022-07-23T05:29:44;101393.56;;;14.46;100.00
50103;BME280;35993;52.604;10.078;2022-07-23T05:32:09;101396.09;;;14.48;100.00
50103;BME280;35993;52.604;10.078;2022-07-23T05:34:39;101386.59;;;14.50;100.00
50103;BME280;35993;52.604;10.078;2022-07-23T05:37:05;101394.19;;;14.48;100.00
50103;BME280;35993;52.604;10.078;2022-07-23T05:39:32;101389.09;;;14.52;100.00
50103;BME280;35993;52.604;10.078;2022-07-23T05:41:58;101393.84;;;14.82;100.00
50103;BME280;35993;52.604;10.078;2022-07-23T05:44:24;101390.38;;;15.05;100.00
50103;BME280;35993;52.604;10.078;2022-07-23T05:46:49;101395.16;;;15.10;100.00
50103;BME280;35993;52.604;10.078;2022-07-23T05:49:20;101390.38;;;15.23;100.00
50103;BME280;35993;52.604;10.078;2022-07-23T05:52:23;101394.97;;;15.53;100.00
50103;BME280;35993;52.604;10.078;2022-07-23T05:55:23;101397.44;;;15.43;100.00
50103;BME280;35993;52.604;10.078;2022-07-23T05:57:49;101406.72;;;15.42;100.00
50103;BME280;35993;52.604;10.078;2022-07-23T06:00:14;101417.59;;;15.61;100.00
50103;BME280;35993;52.604;10.078;2022-07-23T06:02:42;101411.56;;;15.70;100.00
50103;BME280;35993;52.604;10.078;2022-07-23T06:05:10;101406.81;;;15.78;100.00
50103;BME280;35993;52.604;10.078;2022-07-23T06:07:37;101412.13;;;15.91;100.00
50103;BME280;35993;52.604;10.078;2022-07-23T06:10:04;101418.91;;;16.00;100.00
50103;BME280;35993;52.604;10.078;2022-07-23T06:12:30;101413.81;;;16.04;100.00
50103;BME280;35993;52.604;10.078;2022-07-23T06:14:55;101417.25;;;16.11;100.00
50103;BME280;35993;52.604;10.078;2022-07-23T06:17:21;101423.25;;;16.32;100.00
50103;BME280;35993;52.604;10.078;2022-07-23T06:19:47;101431.56;;;16.37;100.00
50103;BME280;35993;52.604;10.078;2022-07-23T06:22:12;101424.06;;;16.44;100.00
50103;BME280;35993;52.604;10.078;2022-07-23T06:24:38;101430.00;;;16.53;100.00
50103;BME280;35993;52.604;10.078;2022-07-23T06:27:04;101429.78;;;16.66;100.00
50103;BME280;35993;52.604;10.078;2022-07-23T06:29:30;101426.84;;;16.97;100.00
50103;BME280;35993;52.604;10.078;2022-07-23T06:31:55;101423.75;;;17.05;100.00
50103;BME280;35993;52.604;10.078;2022-07-23T06:34:21;101425.78;;;17.10;100.00
50103;BME280;35993;52.604;10.078;2022-07-23T06:36:47;101427.56;;;17.04;100.00
50103;BME280;35993;52.604;10.078;2022-07-23T06:39:12;101422.38;;;16.91;100.00
50103;BME280;35993;52.604;10.078;2022-07-23T06:41:38;101424.72;;;16.99;100.00
50103;BME280;35993;52.604;10.078;2022-07-23T06:44:04;101430.06;;;17.06;100.00
50103;BME280;35993;52.604;10.078;2022-07-23T06:46:32;101422.47;;;16.96;100.00
50103;BME280;35993;52.604;10.078;2022-07-23T06:48:59;101421.72;;;17.12;100.00
50103;BME280;35993;52.604;10.078;2022-07-23T06:51:27;101423.44;;;17.30;100.00
50103;BME280;35993;52.604;10.078;2022-07-23T06:53:53;101421.94;;;17.40;99.83
50103;BME280;35993;52.604;10.078;2022-07-23T06:56:19;101415.41;;;17.41;99.51
50103;BME280;35993;52.604;10.078;2022-07-23T06:58:45;101420.28;;;17.39;99.08
50103;BME280;35993;52.604;10.078;2022-07-23T07:01:11;101421.75;;;17.29;98.97
50103;BME280;35993;52.604;10.078;2022-07-23T07:03:36;101416.56;;;17.45;98.08
50103;BME280;35993;52.604;10.078;2022-07-23T07:06:02;101427.41;;;17.68;97.33
50103;BME280;35993;52.604;10.078;2022-07-23T07:08:28;101436.31;;;17.76;94.86
50103;BME280;35993;52.604;10.078;2022-07-23T07:10:54;101426.25;;;17.64;93.86
50103;BME280;35993;52.604;10.078;2022-07-23T07:13:19;101437.56;;;17.68;94.25
50103;BME280;35993;52.604;10.078;2022-07-23T07:15:45;101448.06;;;17.71;93.00
50103;BME280;35993;52.604;10.078;2022-07-23T07:18:11;101445.16;;;17.78;94.07
50103;BME280;35993;52.604;10.078;2022-07-23T07:20:36;101451.56;;;17.83;93.56
50103;BME280;35993;52.604;10.078;2022-07-23T07:23:02;101450.38;;;18.08;93.94
50103;BME280;35993;52.604;10.078;2022-07-23T07:25:28;101439.84;;;17.88;92.06
50103;BME280;35993;52.604;10.078;2022-07-23T07:27:53;101434.88;;;17.56;94.23
50103;BME280;35993;52.604;10.078;2022-07-23T07:30:19;101428.44;;;17.79;93.85
50103;BME280;35993;52.604;10.078;2022-07-23T07:32:45;101433.56;;;18.05;91.08
50103;BME280;35993;52.604;10.078;2022-07-23T07:35:11;101442.06;;;18.03;90.64
50103;BME280;35993;52.604;10.078;2022-07-23T07:37:36;101448.19;;;17.93;91.39
50103;BME280;35993;52.604;10.078;2022-07-23T07:40:02;101444.56;;;17.93;92.43
50103;BME280;35993;52.604;10.078;2022-07-23T07:42:28;101449.78;;;18.06;90.48
50103;BME280;35993;52.604;10.078;2022-07-23T07:44:54;101460.34;;;18.14;91.38
50103;BME280;35993;52.604;10.078;2022-07-23T07:47:20;101447.63;;;18.25;88.38
50103;BME280;35993;52.604;10.078;2022-07-23T07:49:45;101453.59;;;18.22;89.15
50103;BME280;35993;52.604;10.078;2022-07-23T07:52:11;101457.03;;;18.29;88.76
50103;BME280;35993;52.604;10.078;2022-07-23T07:54:37;101459.75;;;18.46;86.85
50103;BME280;35993;52.604;10.078;2022-07-23T07:57:02;101457.69;;;18.37;86.54
50103;BME280;35993;52.604;10.078;2022-07-23T07:59:28;101461.16;;;18.66;85.81
50103;BME280;35993;52.604;10.078;2022-07-23T08:01:54;101460.69;;;18.35;84.02
50103;BME280;35993;52.604;10.078;2022-07-23T08:04:19;101458.53;;;18.37;85.38
50103;BME280;35993;52.604;10.078;2022-07-23T08:06:45;101453.03;;;18.76;84.38
50103;BME280;35993;52.604;10.078;2022-07-23T08:09:10;101459.97;;;18.62;82.91
50103;BME280;35993;52.604;10.078;2022-07-23T08:11:36;101458.78;;;18.18;83.03
50103;BME280;35993;52.604;10.078;2022-07-23T08:14:02;101467.78;;;18.14;83.70
50103;BME280;35993;52.604;10.078;2022-07-23T08:16:28;101461.69;;;18.12;85.25
50103;BME280;35993;52.604;10.078;2022-07-23T08:18:53;101469.03;;;18.06;85.96
50103;BME280;35993;52.604;10.078;2022-07-23T08:21:19;101465.69;;;18.04;84.44
50103;BME280;35993;52.604;10.078;2022-07-23T08:23:44;101466.66;;;18.49;82.20
50103;BME280;35993;52.604;10.078;2022-07-23T08:26:10;101470.75;;;18.63;82.50
50103;BME280;35993;52.604;10.078;2022-07-23T08:28:36;101469.81;;;18.75;81.94
50103;BME280;35993;52.604;10.078;2022-07-23T08:31:02;101468.69;;;18.93;80.85
50103;BME280;35993;52.604;10.078;2022-07-23T08:33:28;101478.50;;;19.06;80.55
50103;BME280;35993;52.604;10.078;2022-07-23T08:35:53;101469.56;;;18.59;77.76
50103;BME280;35993;52.604;10.078;2022-07-23T08:38:21;101471.50;;;18.81;79.81
50103;BME280;35993;52.604;10.078;2022-07-23T08:40:54;101474.97;;;18.71;80.31
50103;BME280;35993;52.604;10.078;2022-07-23T08:43:22;101469.34;;;18.44;80.34
50103;BME280;35993;52.604;10.078;2022-07-23T08:45:50;101473.19;;;18.82;81.09
50103;BME280;35993;52.604;10.078;2022-07-23T08:48:21;101475.03;;;18.76;79.94
50103;BME280;35993;52.604;10.078;2022-07-23T08:50:53;101480.34;;;19.00;81.38
50103;BME280;35993;52.604;10.078;2022-07-23T08:53:21;101473.81;;;19.28;77.94
50103;BME280;35993;52.604;10.078;2022-07-23T08:55:48;101483.56;;;19.63;74.52
50103;BME280;35993;52.604;10.078;2022-07-23T08:58:15;101468.44;;;19.39;74.93
50103;BME280;35993;52.604;10.078;2022-07-23T09:00:41;101469.97;;;19.52;76.19
50103;BME280;35993;52.604;10.078;2022-07-23T09:03:07;101471.06;;;19.28;75.37
50103;BME280;35993;52.604;10.078;2022-07-23T09:05:33;101467.53;;;19.33;72.76
50103;BME280;35993;52.604;10.078;2022-07-23T09:08:14;101471.06;;;19.28;74.86
50103;BME280;35993;52.604;10.078;2022-07-23T09:16:01;101471.38;;;19.32;73.65
50103;BME280;35993;52.604;10.078;2022-07-23T09:31:21;101487.38;;;18.91;75.10
50103;BME280;35993;52.604;10.078;2022-07-23T09:33:48;101473.94;;;19.16;74.35
50103;BME280;35993;52.604;10.078;2022-07-23T09:36:13;101477.38;;;19.51;68.59
50103;BME280;35993;52.604;10.078;2022-07-23T09:38:49;101470.59;;;19.86;66.98
50103;BME280;35993;52.604;10.078;2022-07-23T09:41:15;101470.78;;;20.07;66.67
50103;BME280;35993;52.604;10.078;2022-07-23T09:43:41;101470.09;;;20.22;65.18
50103;BME280;35993;52.604;10.078;2022-07-23T09:46:20;101465.00;;;20.46;63.60
50103;BME280;35993;52.604;10.078;2022-07-23T09:48:47;101468.66;;;20.57;63.97
50103;BME280;35993;52.604;10.078;2022-07-23T09:51:13;101470.28;;;20.15;66.32
50103;BME280;35993;52.604;10.078;2022-07-23T09:53:55;101467.28;;;19.84;67.35
50103;BME280;35993;52.604;10.078;2022-07-23T09:56:20;101473.63;;;19.62;68.11
50103;BME280;35993;52.604;10.078;2022-07-23T09:58:49;101475.63;;;19.45;68.79
50103;BME280;35993;52.604;10.078;2022-07-23T10:01:18;101472.16;;;19.27;67.27
50103;BME280;35993;52.604;10.078;2022-07-23T10:03:46;101471.19;;;19.66;66.00
50103;BME280;35993;52.604;10.078;2022-07-23T10:06:34;101472.53;;;20.18;63.68
50103;BME280;35993;52.604;10.078;2022-07-23T10:09:23;101470.63;;;20.56;62.66
50103;BME280;35993;52.604;10.078;2022-07-23T10:12:22;101468.28;;;20.81;61.62
50103;BME280;35993;52.604;10.078;2022-07-23T10:14:59;101468.66;;;21.05;59.33
50103;BME280;35993;52.604;10.078;2022-07-23T10:17:27;101466.31;;;21.39;58.77
50103;BME280;35993;52.604;10.078;2022-07-23T10:19:53;101468.19;;;21.23;58.49
50103;BME280;35993;52.604;10.078;2022-07-23T10:22:22;101476.88;;;20.89;60.66
50103;BME280;35993;52.604;10.078;2022-07-23T10:38:51;101467.31;;;20.59;59.12
50103;BME280;35993;52.604;10.078;2022-07-23T10:41:39;101473.44;;;20.29;61.62
50103;BME280;35993;52.604;10.078;2022-07-23T10:44:19;101470.66;;;20.61;61.19
50103;BME280;35993;52.604;10.078;2022-07-23T10:46:56;101474.03;;;20.74;59.87
50103;BME280;35993;52.604;10.078;2022-07-23T10:49:34;101477.66;;;20.74;59.67
50103;BME280;35993;52.604;10.078;2022-07-23T10:52:25;101476.97;;;21.10;59.14
50103;BME280;35993;52.604;10.078;2022-07-23T10:57:52;101475.03;;;21.05;57.67
50103;BME280;35993;52.604;10.078;2022-07-23T11:00:22;101475.34;;;20.66;58.81
50103;BME280;35993;52.604;10.078;2022-07-23T11:02:51;101473.03;;;20.90;59.67
50103;BME280;35993;52.604;10.078;2022-07-23T11:05:22;101476.41;;;21.03;58.49
50103;BME280;35993;52.604;10.078;2022-07-23T11:10:51;101469.91;;;21.40;54.63
50103;BME280;35993;52.604;10.078;2022-07-23T11:16:22;101471.41;;;22.25;53.20
50103;BME280;35993;52.604;10.078;2022-07-23T11:18:52;101478.31;;;21.97;53.05
50103;BME280;35993;52.604;10.078;2022-07-23T11:31:57;101474.69;;;21.60;55.14
50103;BME280;35993;52.604;10.078;2022-07-23T11:34:39;101478.06;;;22.08;52.66
50103;BME280;35993;52.604;10.078;2022-07-23T11:37:09;101469.22;;;22.12;52.47
50103;BME280;35993;52.604;10.078;2022-07-23T11:39:36;101461.75;;;22.07;52.24
50103;BME280;35993;52.604;10.078;2022-07-23T11:42:04;101463.97;;;22.46;51.32
50103;BME280;35993;52.604;10.078;2022-07-23T11:44:35;101465.34;;;22.54;51.26
50103;BME280;35993;52.604;10.078;2022-07-23T11:47:06;101461.97;;;22.62;50.31
50103;BME280;35993;52.604;10.078;2022-07-23T11:49:33;101474.38;;;22.90;50.04
50103;BME280;35993;52.604;10.078;2022-07-23T11:52:09;101465.81;;;22.87;49.45
50103;BME280;35993;52.604;10.078;2022-07-23T11:54:40;101469.09;;;22.94;49.89
50103;BME280;35993;52.604;10.078;2022-07-23T11:57:12;101474.59;;;23.10;48.83
50103;BME280;35993;52.604;10.078;2022-07-23T11:59:38;101467.13;;;23.05;48.93
50103;BME280;35993;52.604;10.078;2022-07-23T12:02:05;101471.47;;;22.40;49.40
50103;BME280;35993;52.604;10.078;2022-07-23T12:04:42;101474.47;;;21.98;50.47
50103;BME280;35993;52.604;10.078;2022-07-23T12:09:59;101459.66;;;21.35;51.91
50103;BME280;35993;52.604;10.078;2022-07-23T12:12:25;101458.59;;;21.47;51.61
50103;BME280;35993;52.604;10.078;2022-07-23T12:14:58;101458.69;;;21.98;49.46
50103;BME280;35993;52.604;10.078;2022-07-23T12:17:32;101474.44;;;22.54;49.01
50103;BME280;35993;52.604;10.078;2022-07-23T12:19:59;101463.53;;;22.94;48.07
50103;BME280;35993;52.604;10.078;2022-07-23T12:22:33;101469.38;;;22.92;46.57
50103;BME280;35993;52.604;10.078;2022-07-23T12:25:03;101469.28;;;23.13;46.94
50103;BME280;35993;52.604;10.078;2022-07-23T12:27:29;101468.50;;;23.02;47.59
50103;BME280;35993;52.604;10.078;2022-07-23T12:29:55;101472.91;;;23.14;47.62
50103;BME280;35993;52.604;10.078;2022-07-23T12:32:26;101464.31;;;23.20;47.10
50103;BME280;35993;52.604;10.078;2022-07-23T12:35:07;101460.28;;;23.47;46.68
50103;BME280;35993;52.604;10.078;2022-07-23T12:37:39;101460.25;;;23.52;47.15
50103;BME280;35993;52.604;10.078;2022-07-23T12:40:25;101469.03;;;23.20;45.89
50103;BME280;35993;52.604;10.078;2022-07-23T12:43:00;101467.88;;;23.26;46.52
50103;BME280;35993;52.604;10.078;2022-07-23T12:45:28;101463.19;;;23.27;46.70
50103;BME280;35993;52.604;10.078;2022-07-23T12:48:06;101461.28;;;23.06;47.35
50103;BME280;35993;52.604;10.078;2022-07-23T12:50:36;101464.03;;;23.12;47.42
50103;BME280;35993;52.604;10.078;2022-07-23T12:53:08;101478.31;;;22.74;48.25
50103;BME280;35993;52.604;10.078;2022-07-23T12:55:35;101470.59;;;22.30;49.29
50103;BME280;35993;52.604;10.078;2022-07-23T12:58:07;101467.00;;;22.34;49.20
50103;BME280;35993;52.604;10.078;2022-07-23T13:00:49;101464.50;;;22.07;50.34
50103;BME280;35993;52.604;10.078;2022-07-23T13:03:36;101472.81;;;22.58;48.10
50103;BME280;35993;52.604;10.078;2022-07-23T13:06:10;101482.03;;;23.14;48.20
50103;BME280;35993;52.604;10.078;2022-07-23T13:08:38;101492.25;;;23.29;47.98
50103;BME280;35993;52.604;10.078;2022-07-23T13:11:06;101477.59;;;23.13;48.15
50103;BME280;35993;52.604;10.078;2022-07-23T13:13:34;101476.34;;;22.80;47.81
50103;BME280;35993;52.604;10.078;2022-07-23T13:16:00;101482.75;;;22.13;49.53
50103;BME280;35993;52.604;10.078;2022-07-23T13:18:27;101482.47;;;21.89;50.80
50103;BME280;35993;52.604;10.078;2022-07-23T13:20:53;101488.84;;;22.36;50.62
50103;BME280;35993;52.604;10.078;2022-07-23T13:23:20;101484.13;;;22.62;50.33
50103;BME280;35993;52.604;10.078;2022-07-23T13:25:46;101489.13;;;22.60;49.98
50103;BME280;35993;52.604;10.078;2022-07-23T13:28:13;101486.38;;;22.55;50.49
50103;BME280;35993;52.604;10.078;2022-07-23T13:30:39;101485.22;;;22.71;50.21
50103;BME280;35993;52.604;10.078;2022-07-23T13:33:05;101495.38;;;22.91;49.50
50103;BME280;35993;52.604;10.078;2022-07-23T13:35:32;101493.97;;;23.15;49.13